Terminal Aerodrome Forecast
Issued by NWS

Home | Current Version | Previous Version | Text Only | Print | Product List | Glossary On
Versions: 1 2 3 4 5 6 7 8 9 10 11 12 13 14 15 16 17 18 19 20 21 22 23 24 25 26 27 28 29
000
FTUS41 KCTP 162327
TAFLNS
TAF
KLNS 162327Z 1700/1724 VRB03KT P6SM SCT025 OVC050
     FM170200 12005KT P6SM VCSH OVC025
     FM170400 12004KT 5SM BR OVC025
     FM170900 09003KT 1 1/2SM BR OVC009
     FM172000 15007KT 2SM -RA BR OVC009=

USA.gov is the U.S. government's official web portal to all federal, state and local government web resources and services.